Time;durP1;ratioP1;P1;durP2;ratioP2;P2;SDS_P1;SDS_P2;PMS_P1;PMS_P2;Temp;Humidity;BMP_temperature;BMP_pressure;BME280_temperature;BME280_humidity;BME280_pressure;Samples;Min_cycle;Max_cycle;Signal;HPM_P1;HPM_P2
2021/10/24 00:00:33;;;;;;;2.80;2.55;;;17.40;63.00;;;;;;5072268;28;20233;-71
2021/10/24 00:02:59;;;;;;;3.20;3.00;;;17.40;63.00;;;;;;5072913;28;20232;-71
2021/10/24 00:05:24;;;;;;;3.20;2.90;;;17.40;63.00;;;;;;5073215;28;20190;-71
2021/10/24 00:07:50;;;;;;;3.13;2.83;;;17.40;63.10;;;;;;5072025;28;20614;-69
2021/10/24 00:10:15;;;;;;;3.47;3.20;;;17.40;63.00;;;;;;5072849;28;20629;-69
2021/10/24 00:12:41;;;;;;;3.80;3.13;;;17.40;63.10;;;;;;5072721;28;20182;-72
2021/10/24 00:15:07;;;;;;;2.80;2.60;;;17.40;63.00;;;;;;5072131;28;20173;-69
2021/10/24 00:17:32;;;;;;;3.10;2.90;;;17.40;63.00;;;;;;5072444;28;20256;-71
2021/10/24 00:19:58;;;;;;;3.35;3.05;;;17.40;63.00;;;;;;5071217;28;20163;-70
2021/10/24 00:22:23;;;;;;;3.17;2.90;;;17.40;63.00;;;;;;5072810;28;20563;-70
2021/10/24 00:24:48;;;;;;;2.85;2.65;;;17.30;62.90;;;;;;5072727;28;20186;-70
2021/10/24 00:27:14;;;;;;;3.60;3.25;;;17.30;62.90;;;;;;5072509;28;20185;-69
2021/10/24 00:29:39;;;;;;;2.95;2.75;;;17.30;62.90;;;;;;5071855;28;20265;-71
2021/10/24 00:32:06;;;;;;;3.40;2.88;;;17.30;62.90;;;;;;5072626;28;20617;-70
2021/10/24 00:34:32;;;;;;;3.20;2.90;;;17.30;62.90;;;;;;5071814;28;20224;-71
2021/10/24 00:36:57;;;;;;;3.20;2.90;;;17.30;62.90;;;;;;5072829;28;20214;-71
2021/10/24 00:39:23;;;;;;;3.33;2.83;;;17.30;62.90;;;;;;5072844;28;20179;-72
2021/10/24 00:41:48;;;;;;;3.75;2.90;;;17.30;62.80;;;;;;5071659;28;20213;-70
2021/10/24 00:44:21;;;;;;;2.88;2.67;;;17.30;62.80;;;;;;5072491;28;20304;-69
2021/10/24 00:46:48;;;;;;;3.28;3.08;;;17.30;62.80;;;;;;5072314;28;20637;-70
2021/10/24 00:49:14;;;;;;;3.05;2.75;;;17.30;62.80;;;;;;5071787;28;20586;-70
2021/10/24 00:51:39;;;;;;;2.85;2.65;;;17.20;62.80;;;;;;5072421;28;20257;-70
2021/10/24 00:54:05;;;;;;;3.13;2.83;;;17.20;62.70;;;;;;5072503;28;20179;-71
2021/10/24 00:56:34;;;;;;;3.35;3.05;;;17.20;62.80;;;;;;5070311;28;20568;-70
2021/10/24 00:59:00;;;;;;;3.70;3.40;;;17.20;62.70;;;;;;5072510;28;20200;-70
2021/10/24 01:01:25;;;;;;;3.25;2.97;;;17.20;62.60;;;;;;5072489;28;20299;-69
2021/10/24 01:03:51;;;;;;;3.63;3.00;;;17.20;62.70;;;;;;5071756;28;20179;-70
2021/10/24 01:06:16;;;;;;;3.28;2.97;;;17.20;62.70;;;;;;5072540;28;20182;-70
2021/10/24 01:08:42;;;;;;;3.20;2.90;;;17.20;62.70;;;;;;5071477;28;20199;-69
2021/10/24 01:11:07;;;;;;;3.30;3.00;;;17.20;62.70;;;;;;5074576;28;20693;-69
2021/10/24 01:13:33;;;;;;;3.45;3.15;;;17.20;62.70;;;;;;5075796;28;20639;-69
2021/10/24 01:16:15;;;;;;;3.22;2.92;;;17.20;62.70;;;;;;5075990;28;20273;-69
2021/10/24 01:18:41;;;;;;;2.88;2.67;;;17.10;62.70;;;;;;5075836;28;20178;-69
2021/10/24 01:21:07;;;;;;;3.83;2.92;;;17.20;62.70;;;;;;5076118;28;20202;-70
2021/10/24 01:23:32;;;;;;;3.38;2.80;;;17.10;62.70;;;;;;5075077;28;20170;-69
2021/10/24 01:25:58;;;;;;;3.20;2.92;;;17.10;62.70;;;;;;5075898;28;20169;-68
2021/10/24 01:28:24;;;;;;;3.15;2.90;;;17.10;62.70;;;;;;5075770;28;20175;-70
2021/10/24 01:30:51;;;;;;;3.55;3.25;;;17.10;62.70;;;;;;5074947;28;20177;-71
2021/10/24 01:33:17;;;;;;;3.75;3.15;;;17.10;62.70;;;;;;5076009;28;20265;-70
2021/10/24 01:35:55;;;;;;;3.28;2.97;;;17.10;62.70;;;;;;5075668;28;20261;-71
2021/10/24 01:38:22;;;;;;;3.83;3.17;;;17.10;62.70;;;;;;5075065;28;20214;-71
2021/10/24 01:40:48;;;;;;;3.90;3.50;;;17.10;62.60;;;;;;5075444;28;20179;-71
2021/10/24 01:43:13;;;;;;;3.88;3.33;;;17.10;62.60;;;;;;5075627;28;20256;-70
2021/10/24 01:45:39;;;;;;;3.10;2.80;;;17.10;62.60;;;;;;5074505;28;20178;-70
2021/10/24 01:48:04;;;;;;;3.33;3.03;;;17.00;62.60;;;;;;5075736;28;20181;-70
2021/10/24 01:50:30;;;;;;;3.80;3.20;;;17.00;62.60;;;;;;5075089;28;20174;-71
2021/10/24 01:52:56;;;;;;;4.63;3.25;;;17.00;62.60;;;;;;5074848;28;20175;-71
2021/10/24 01:55:21;;;;;;;5.07;3.45;;;17.00;62.60;;;;;;5075341;28;20307;-71
2021/10/24 01:57:48;;;;;;;3.97;3.10;;;17.00;62.60;;;;;;5074850;28;20218;-71
2021/10/24 02:00:14;;;;;;;3.60;3.30;;;17.00;62.70;;;;;;5073431;28;20633;-71
2021/10/24 02:02:40;;;;;;;3.70;3.22;;;17.00;62.60;;;;;;5075181;28;20552;-71
2021/10/24 02:05:06;;;;;;;4.43;3.28;;;17.00;62.60;;;;;;5075183;28;20727;-71
2021/10/24 02:07:31;;;;;;;3.53;2.97;;;17.00;62.60;;;;;;5074276;28;20257;-70
2021/10/24 02:09:56;;;;;;;4.20;3.40;;;17.00;62.60;;;;;;5075032;28;20178;-69
2021/10/24 02:12:22;;;;;;;3.50;3.20;;;17.00;62.60;;;;;;5074365;28;20587;-70
2021/10/24 02:14:48;;;;;;;3.80;3.08;;;17.00;62.60;;;;;;5074897;28;20801;-69
2021/10/24 02:17:13;;;;;;;3.33;3.00;;;17.00;62.60;;;;;;5075090;28;20213;-69
2021/10/24 02:19:39;;;;;;;4.15;2.90;;;17.00;62.60;;;;;;5073862;28;20191;-69
2021/10/24 02:22:05;;;;;;;3.50;3.17;;;16.90;62.50;;;;;;5074912;28;20528;-68
2021/10/24 02:24:32;;;;;;;4.70;3.03;;;16.90;62.50;;;;;;5074487;28;20493;-69
2021/10/24 02:26:57;;;;;;;4.68;3.38;;;16.90;62.60;;;;;;5074293;28;20221;-70
2021/10/24 02:29:23;;;;;;;3.92;3.10;;;16.90;62.60;;;;;;5074973;28;20202;-70
2021/10/24 02:31:48;;;;;;;3.95;3.55;;;16.90;62.50;;;;;;5074545;28;20194;-70
2021/10/24 02:34:14;;;;;;;3.08;2.78;;;16.90;62.50;;;;;;5073997;28;20166;-71
2021/10/24 02:36:39;;;;;;;3.67;3.28;;;16.90;62.50;;;;;;5074272;28;20205;-71
2021/10/24 02:39:05;;;;;;;3.25;2.95;;;16.90;62.50;;;;;;5074644;28;20233;-71
2021/10/24 02:41:30;;;;;;;3.75;3.15;;;16.90;62.50;;;;;;5073488;28;20183;-71
2021/10/24 02:43:56;;;;;;;3.20;2.90;;;16.90;62.40;;;;;;5074231;28;20581;-70
2021/10/24 02:46:21;;;;;;;3.30;3.00;;;16.90;62.50;;;;;;5074481;28;20177;-70
2021/10/24 02:48:47;;;;;;;3.15;2.85;;;16.90;62.50;;;;;;5073452;28;20315;-71
2021/10/24 02:51:12;;;;;;;2.88;2.65;;;16.90;62.50;;;;;;5074298;28;20532;-71
2021/10/24 02:53:38;;;;;;;2.83;2.47;;;16.90;62.40;;;;;;5074027;28;20186;-72
2021/10/24 02:56:03;;;;;;;2.80;2.60;;;16.90;62.40;;;;;;5072214;28;20170;-72
2021/10/24 02:58:32;;;;;;;2.95;2.58;;;16.80;62.30;;;;;;5074119;28;20700;-73
2021/10/24 03:00:58;;;;;;;3.00;2.67;;;16.80;62.40;;;;;;5074133;28;20179;-72
2021/10/24 03:03:23;;;;;;;3.15;2.85;;;16.80;62.40;;;;;;5073420;28;20166;-71
2021/10/24 03:05:49;;;;;;;3.47;3.17;;;16.80;62.30;;;;;;5073741;28;20180;-70
2021/10/24 03:08:14;;;;;;;3.10;2.80;;;16.80;62.30;;;;;;5073835;28;20583;-70
2021/10/24 03:10:40;;;;;;;3.35;2.97;;;16.80;62.30;;;;;;5072896;28;20232;-70
2021/10/24 03:13:06;;;;;;;3.45;3.10;;;16.80;62.40;;;;;;5074049;28;20178;-69
2021/10/24 03:15:32;;;;;;;3.38;3.03;;;16.80;62.40;;;;;;5073832;28;20166;-71
2021/10/24 03:17:57;;;;;;;3.30;2.78;;;16.70;62.30;;;;;;5073268;28;20210;-68
2021/10/24 03:20:23;;;;;;;2.97;2.75;;;16.70;62.30;;;;;;5073926;28;20178;-68
2021/10/24 03:22:48;;;;;;;3.58;2.97;;;16.80;62.40;;;;;;5072533;28;20198;-69
2021/10/24 03:25:14;;;;;;;2.78;2.58;;;16.70;62.30;;;;;;5073543;28;20645;-67
2021/10/24 03:27:40;;;;;;;3.30;3.00;;;16.70;62.30;;;;;;5073458;28;20171;-69
2021/10/24 03:30:05;;;;;;;3.58;2.70;;;16.70;62.30;;;;;;5072985;28;20174;-69
2021/10/24 03:32:31;;;;;;;3.25;2.83;;;16.70;62.20;;;;;;5072790;28;20205;-71
2021/10/24 03:34:57;;;;;;;3.00;2.80;;;16.70;62.30;;;;;;5073647;28;20181;-71
2021/10/24 03:37:22;;;;;;;2.97;2.65;;;16.70;62.30;;;;;;5072634;28;20243;-71
2021/10/24 03:39:48;;;;;;;3.85;2.90;;;16.70;62.30;;;;;;5073187;28;20236;-71
2021/10/24 03:42:13;;;;;;;3.00;2.80;;;16.70;62.30;;;;;;5073271;28;20236;-69
2021/10/24 03:44:39;;;;;;;2.78;2.55;;;16.70;62.30;;;;;;5072416;28;20174;-70
2021/10/24 03:47:04;;;;;;;2.95;2.67;;;16.70;62.20;;;;;;5073481;28;20232;-69
2021/10/24 03:49:30;;;;;;;3.45;2.60;;;16.70;63.10;;;;;;5073094;28;20171;-71
2021/10/24 03:51:56;;;;;;;2.70;2.50;;;16.70;62.30;;;;;;5072582;28;20179;-70
2021/10/24 03:54:21;;;;;;;2.92;2.72;;;16.70;62.30;;;;;;5073221;28;20166;-71
2021/10/24 03:56:47;;;;;;;3.00;2.70;;;16.60;62.20;;;;;;5072940;28;20214;-71
2021/10/24 03:59:12;;;;;;;2.75;2.55;;;16.60;62.10;;;;;;5072422;28;20643;-70
2021/10/24 04:01:38;;;;;;;2.63;2.42;;;16.70;62.30;;;;;;5072796;28;20539;-71
2021/10/24 04:04:03;;;;;;;3.03;2.67;;;16.60;62.20;;;;;;5073206;28;20166;-70
2021/10/24 04:06:29;;;;;;;3.13;2.40;;;16.60;62.20;;;;;;5071981;28;20193;-69
2021/10/24 04:08:54;;;;;;;2.67;2.47;;;16.50;62.20;;;;;;5072875;28;20194;-69
2021/10/24 04:11:20;;;;;;;3.50;2.80;;;16.60;62.30;;;;;;5073095;28;20166;-67
2021/10/24 04:13:46;;;;;;;3.08;2.83;;;16.60;62.20;;;;;;5072133;28;20177;-70
2021/10/24 04:16:12;;;;;;;2.80;2.42;;;16.60;62.20;;;;;;5072814;28;20629;-69
2021/10/24 04:18:37;;;;;;;2.85;2.55;;;16.50;62.20;;;;;;5072574;28;20231;-69
2021/10/24 04:21:03;;;;;;;4.25;2.90;;;16.60;62.20;;;;;;5072167;28;20174;-69
2021/10/24 04:23:28;;;;;;;2.53;2.33;;;16.60;62.20;;;;;;5072520;28;20629;-68
2021/10/24 04:25:54;;;;;;;3.42;2.60;;;16.50;62.10;;;;;;5072932;28;20201;-68
2021/10/24 04:28:20;;;;;;;3.38;2.75;;;16.50;62.20;;;;;;5072192;28;20181;-69
2021/10/24 04:30:45;;;;;;;2.72;2.10;;;16.50;62.10;;;;;;5072692;28;20177;-69
2021/10/24 04:33:12;;;;;;;2.70;2.50;;;16.50;62.10;;;;;;5072120;28;20270;-70
2021/10/24 04:35:37;;;;;;;3.53;2.47;;;16.50;62.20;;;;;;5072565;28;20539;-70
2021/10/24 04:38:03;;;;;;;2.60;2.40;;;16.50;62.10;;;;;;5072713;28;20210;-69
2021/10/24 04:40:28;;;;;;;2.85;2.40;;;16.50;62.10;;;;;;5071965;28;20692;-69
2021/10/24 04:42:54;;;;;;;2.42;2.20;;;16.50;62.10;;;;;;5072296;28;20727;-69
2021/10/24 04:45:22;;;;;;;3.25;2.88;;;16.50;62.10;;;;;;5075803;28;20180;-70
2021/10/24 04:47:48;;;;;;;2.53;2.33;;;16.50;62.10;;;;;;5075746;28;20173;-69
2021/10/24 04:50:13;;;;;;;2.60;2.40;;;16.50;62.10;;;;;;5076437;28;20175;-70
2021/10/24 04:52:39;;;;;;;2.60;2.40;;;16.50;62.10;;;;;;5076053;28;20193;-71
2021/10/24 04:55:05;;;;;;;2.85;2.53;;;16.50;62.10;;;;;;5075947;28;20178;-69
2021/10/24 04:57:31;;;;;;;2.50;2.30;;;16.40;62.10;;;;;;5076276;28;20214;-72
2021/10/24 04:59:56;;;;;;;2.50;2.30;;;16.40;62.10;;;;;;5076496;28;20718;-71
2021/10/24 05:02:22;;;;;;;2.88;2.45;;;16.50;62.20;;;;;;5075790;28;20244;-69
2021/10/24 05:04:47;;;;;;;2.80;2.50;;;16.50;62.10;;;;;;5076064;28;20170;-70
2021/10/24 05:07:13;;;;;;;3.53;2.53;;;16.50;61.70;;;;;;5076167;28;20527;-69
2021/10/24 05:09:38;;;;;;;2.90;2.70;;;16.60;61.80;;;;;;5075494;28;20190;-69
2021/10/24 05:12:04;;;;;;;2.55;2.35;;;16.70;61.80;;;;;;5076397;28;20257;-69
2021/10/24 05:14:30;;;;;;;2.20;2.00;;;16.90;61.70;;;;;;5075994;28;20227;-70
2021/10/24 05:16:55;;;;;;;2.42;2.33;;;17.10;61.20;;;;;;5075414;28;20214;-69
2021/10/24 05:19:21;;;;;;;2.10;2.00;;;17.30;60.80;;;;;;5076217;28;20665;-69
2021/10/24 05:21:46;;;;;;;2.58;2.38;;;17.60;60.40;;;;;;5076338;28;20188;-68
2021/10/24 05:24:12;;;;;;;3.55;2.00;;;17.80;59.70;;;;;;5075464;28;20636;-68
2021/10/24 05:26:38;;;;;;;1.80;1.70;;;18.10;59.40;;;;;;5075803;28;20568;-69
2021/10/24 05:29:03;;;;;;;2.08;1.98;;;18.20;59.10;;;;;;5075842;28;20175;-68
2021/10/24 05:31:29;;;;;;;1.98;1.77;;;18.30;58.80;;;;;;5074783;28;20676;-70
2021/10/24 05:33:54;;;;;;;2.28;2.08;;;18.40;58.60;;;;;;5075984;28;20174;-70
2021/10/24 05:36:20;;;;;;;1.98;1.80;;;18.60;58.30;;;;;;5074828;28;20506;-70
2021/10/24 05:38:45;;;;;;;2.30;2.10;;;18.70;58.20;;;;;;5075548;28;20179;-70
2021/10/24 05:41:11;;;;;;;2.38;2.17;;;18.80;58.00;;;;;;5075793;28;20182;-69
2021/10/24 05:43:36;;;;;;;2.03;1.83;;;18.80;57.90;;;;;;5074474;28;20218;-69
2021/10/24 05:46:02;;;;;;;2.33;2.10;;;18.90;57.80;;;;;;5075613;28;20625;-68
2021/10/24 05:48:28;;;;;;;2.20;2.00;;;18.90;57.70;;;;;;5075598;28;20265;-69
2021/10/24 05:50:54;;;;;;;2.10;2.00;;;18.90;57.80;;;;;;5074922;28;20182;-70
2021/10/24 05:53:19;;;;;;;1.92;1.83;;;18.90;57.90;;;;;;5075732;28;20303;-70
2021/10/24 05:55:46;;;;;;;2.20;2.00;;;18.90;57.90;;;;;;5073215;28;20599;-70
2021/10/24 05:58:12;;;;;;;2.20;2.00;;;18.90;58.50;;;;;;5074703;28;20214;-70
2021/10/24 06:00:37;;;;;;;1.92;1.83;;;18.80;57.90;;;;;;5075000;28;20625;-70
2021/10/24 06:03:04;;;;;;;2.30;2.10;;;18.80;58.00;;;;;;5075246;28;20182;-69
2021/10/24 06:05:30;;;;;;;1.98;1.85;;;18.70;58.20;;;;;;5074180;28;20202;-69
2021/10/24 06:07:55;;;;;;;2.10;1.90;;;18.60;58.30;;;;;;5075403;28;20672;-69
2021/10/24 06:10:22;;;;;;;1.95;1.85;;;18.50;58.60;;;;;;5075248;28;20656;-69
2021/10/24 06:12:51;;;;;;;2.10;2.00;;;18.50;58.60;;;;;;5074359;28;20561;-69
2021/10/24 06:15:17;;;;;;;2.30;2.10;;;18.40;58.80;;;;;;5075201;28;20173;-69
2021/10/24 06:17:46;;;;;;;2.22;2.08;;;18.40;58.90;;;;;;5074658;28;20233;-70
2021/10/24 06:20:12;;;;;;;2.65;2.15;;;18.40;58.80;;;;;;5074192;28;20209;-66
2021/10/24 06:22:37;;;;;;;2.53;2.33;;;18.40;58.80;;;;;;5074744;28;20649;-69
2021/10/24 06:25:04;;;;;;;5.38;2.10;;;18.30;58.80;;;;;;5074756;28;20182;-68
2021/10/24 06:27:29;;;;;;;2.42;2.22;;;18.30;59.10;;;;;;5073629;28;20622;-64
2021/10/24 06:29:55;;;;;;;4.88;2.30;;;18.40;59.00;;;;;;5074602;28;20181;-70
2021/10/24 06:32:20;;;;;;;5.75;2.80;;;18.40;59.10;;;;;;5074784;28;20518;-72
2021/10/24 06:34:46;;;;;;;4.15;2.50;;;18.30;59.20;;;;;;5073514;28;20626;-68
2021/10/24 06:37:18;;;;;;;4.22;2.40;;;18.30;59.30;;;;;;5074747;28;20683;-66
2021/10/24 06:39:44;;;;;;;9.25;2.95;;;18.20;59.40;;;;;;5073843;28;20178;-71
2021/10/24 06:42:10;;;;;;;8.25;3.22;;;18.10;59.60;;;;;;5074713;28;20206;-72
2021/10/24 06:44:35;;;;;;;5.78;2.90;;;18.00;59.80;;;;;;5073989;28;20628;-73
2021/10/24 06:47:01;;;;;;;5.88;2.75;;;18.00;60.00;;;;;;5073556;28;20664;-70
2021/10/24 06:49:26;;;;;;;8.93;3.13;;;18.00;60.00;;;;;;5074259;28;20214;-71
2021/10/24 06:51:52;;;;;;;3.65;2.78;;;18.00;60.00;;;;;;5074214;28;20178;-71
2021/10/24 06:54:17;;;;;;;4.75;2.70;;;18.10;60.00;;;;;;5073612;28;20162;-72
2021/10/24 06:56:43;;;;;;;2.75;2.42;;;18.10;59.90;;;;;;5073753;28;20557;-71
2021/10/24 06:59:08;;;;;;;4.05;2.90;;;18.10;59.90;;;;;;5074172;28;20513;-74
2021/10/24 07:01:34;;;;;;;3.78;2.80;;;18.10;59.70;;;;;;5073125;28;20174;-71
2021/10/24 07:04:01;;;;;;;3.20;2.88;;;18.10;60.00;;;;;;5073985;28;20232;-71
2021/10/24 07:06:27;;;;;;;4.15;3.30;;;18.00;59.90;;;;;;5073050;28;20573;-70
2021/10/24 07:08:52;;;;;;;3.47;2.83;;;18.00;60.20;;;;;;5073089;28;20174;-75
2021/10/24 07:11:20;;;;;;;3.92;3.00;;;18.00;60.30;;;;;;5074264;28;20178;-73
2021/10/24 07:13:46;;;;;;;4.20;3.20;;;18.00;60.90;;;;;;5073604;28;20170;-68
2021/10/24 07:16:12;;;;;;;5.47;3.20;;;18.00;59.20;;;;;;5072948;28;20578;-67
2021/10/24 07:18:37;;;;;;;4.45;3.10;;;18.10;59.00;;;;;;5073443;28;20629;-68
2021/10/24 07:21:03;;;;;;;4.05;3.00;;;18.20;58.90;;;;;;5073969;28;20192;-68
2021/10/24 07:23:28;;;;;;;3.22;2.85;;;18.20;58.90;;;;;;5072781;28;20178;-67
2021/10/24 07:25:54;;;;;;;5.57;2.90;;;18.30;58.90;;;;;;5073213;28;20170;-67
2021/10/24 07:28:19;;;;;;;6.60;2.85;;;18.30;58.80;;;;;;5073656;28;20178;-67
2021/10/24 07:30:45;;;;;;;4.53;2.80;;;18.30;58.80;;;;;;5072563;28;20201;-68
2021/10/24 07:33:10;;;;;;;6.35;3.20;;;18.30;58.90;;;;;;5073462;28;20650;-67
2021/10/24 07:35:36;;;;;;;5.60;2.53;;;18.40;59.00;;;;;;5073357;28;20181;-67
2021/10/24 07:38:05;;;;;;;4.68;2.58;;;18.40;59.10;;;;;;5072765;28;20206;-67
2021/10/24 07:40:35;;;;;;;4.60;2.25;;;18.40;59.20;;;;;;5073165;28;20595;-68
2021/10/24 07:43:01;;;;;;;4.18;2.55;;;18.40;59.10;;;;;;5072302;28;20583;-66
2021/10/24 07:45:27;;;;;;;4.03;2.75;;;18.40;59.30;;;;;;5073290;28;20163;-66
2021/10/24 07:47:52;;;;;;;2.92;2.50;;;18.40;59.30;;;;;;5072919;28;20208;-66
2021/10/24 07:50:18;;;;;;;3.85;2.08;;;18.40;59.30;;;;;;5072645;28;20192;-67
2021/10/24 07:52:43;;;;;;;3.53;2.50;;;18.40;59.40;;;;;;5073087;28;20265;-66
2021/10/24 07:55:09;;;;;;;3.42;2.67;;;18.40;59.30;;;;;;5073273;28;20166;-66
2021/10/24 07:57:34;;;;;;;2.58;2.38;;;18.40;59.30;;;;;;5072120;28;20209;-66
2021/10/24 08:00:00;;;;;;;3.67;2.72;;;18.40;59.30;;;;;;5073131;28;20167;-66
2021/10/24 08:02:25;;;;;;;2.45;2.15;;;18.40;59.30;;;;;;5073269;28;20185;-67
2021/10/24 08:04:51;;;;;;;4.00;3.22;;;18.40;59.20;;;;;;5072179;28;20170;-67
2021/10/24 08:07:17;;;;;;;4.35;2.60;;;18.30;59.80;;;;;;5073127;28;20170;-67
2021/10/24 08:09:43;;;;;;;2.80;2.50;;;18.30;59.20;;;;;;5072863;28;20177;-66
2021/10/24 08:12:09;;;;;;;3.33;3.00;;;18.30;59.10;;;;;;5072362;28;20175;-66
2021/10/24 08:14:35;;;;;;;4.25;2.70;;;18.30;59.10;;;;;;5072533;28;20187;-67
2021/10/24 08:17:00;;;;;;;4.22;3.10;;;18.30;59.20;;;;;;5060894;28;20210;-66
2021/10/24 08:19:26;;;;;;;3.75;3.08;;;18.30;59.20;;;;;;5066787;28;20629;-65
2021/10/24 08:21:52;;;;;;;2.60;2.40;;;18.30;59.20;;;;;;5054152;28;20182;-66
2021/10/24 08:24:19;;;;;;;3.85;2.58;;;18.30;59.20;;;;;;5056121;28;20166;-66
2021/10/24 08:26:44;;;;;;;3.30;2.70;;;18.30;59.40;;;;;;5060829;28;20649;-67
2021/10/24 08:29:10;;;;;;;5.85;3.03;;;18.30;59.30;;;;;;5072811;28;20175;-66
2021/10/24 08:31:35;;;;;;;3.63;2.40;;;18.30;59.40;;;;;;5072722;28;20174;-67
2021/10/24 08:34:01;;;;;;;2.70;2.50;;;18.30;59.50;;;;;;5059105;28;20248;-67
2021/10/24 08:36:27;;;;;;;3.85;2.95;;;18.30;59.50;;;;;;5052672;28;20182;-67
2021/10/24 08:38:53;;;;;;;4.75;3.13;;;18.30;59.50;;;;;;5052687;28;20218;-68
2021/10/24 08:41:23;;;;;;;3.40;2.63;;;18.30;59.50;;;;;;5058074;28;20678;-67
2021/10/24 08:43:53;;;;;;;3.38;3.05;;;18.30;59.60;;;;;;5060368;28;20218;-67
2021/10/24 08:46:19;;;;;;;4.13;2.92;;;18.30;59.70;;;;;;5052044;28;20224;-66
2021/10/24 08:48:44;;;;;;;3.05;2.83;;;18.30;59.80;;;;;;5052324;28;20207;-67
2021/10/24 08:51:10;;;;;;;2.58;2.38;;;18.30;60.70;;;;;;5052562;28;20175;-67
2021/10/24 08:53:36;;;;;;;3.13;2.83;;;18.30;59.90;;;;;;5051379;28;20170;-68
2021/10/24 08:56:01;;;;;;;4.95;3.38;;;18.30;59.90;;;;;;5051188;28;20176;-67
2021/10/24 08:58:27;;;;;;;3.80;3.00;;;18.30;59.90;;;;;;5052142;28;20237;-66
2021/10/24 09:00:52;;;;;;;8.00;3.28;;;18.30;59.90;;;;;;5051467;28;20530;-68
2021/10/24 09:03:18;;;;;;;4.97;3.00;;;18.30;59.80;;;;;;5052413;28;20175;-69
2021/10/24 09:05:45;;;;;;;5.65;3.17;;;18.30;59.70;;;;;;5052305;28;20175;-67
2021/10/24 09:08:21;;;;;;;5.32;3.03;;;18.40;59.70;;;;;;5051838;28;20182;-68
2021/10/24 09:10:50;;;;;;;4.32;3.05;;;18.40;59.70;;;;;;5051991;28;20179;-71
2021/10/24 09:13:18;;;;;;;3.65;2.92;;;18.50;59.80;;;;;;5052416;28;20210;-71
2021/10/24 09:15:47;;;;;;;3.97;3.00;;;18.50;59.80;;;;;;5051338;28;20207;-70
2021/10/24 09:18:12;;;;;;;3.63;2.72;;;18.60;59.80;;;;;;5052138;28;20605;-71
2021/10/24 09:20:38;;;;;;;3.63;2.88;;;18.60;59.80;;;;;;5052175;28;20179;-67
2021/10/24 09:23:08;;;;;;;3.25;2.63;;;18.60;59.90;;;;;;5051537;28;20210;-67
2021/10/24 09:25:34;;;;;;;3.75;2.75;;;18.60;60.80;;;;;;5067382;28;20502;-67
2021/10/24 09:28:00;;;;;;;3.42;2.78;;;18.60;59.90;;;;;;5070698;28;20174;-67
2021/10/24 09:30:28;;;;;;;3.72;3.00;;;18.60;60.00;;;;;;5072933;28;20652;-68
2021/10/24 09:32:56;;;;;;;5.45;2.83;;;18.70;60.20;;;;;;5076085;28;20179;-68
2021/10/24 09:35:25;;;;;;;5.55;2.65;;;18.70;60.10;;;;;;5075915;28;20685;-68
2021/10/24 09:37:51;;;;;;;3.83;2.72;;;18.70;60.20;;;;;;5075170;28;20206;-68
2021/10/24 09:40:17;;;;;;;4.50;2.90;;;18.70;60.20;;;;;;5076452;28;20179;-69
2021/10/24 09:42:43;;;;;;;3.28;2.47;;;18.70;60.30;;;;;;5074546;28;20354;-68
2021/10/24 09:45:12;;;;;;;3.45;2.92;;;18.70;60.30;;;;;;5075744;28;20289;-68
2021/10/24 09:47:38;;;;;;;3.17;2.67;;;18.70;60.20;;;;;;5075535;28;20178;-67
2021/10/24 09:50:05;;;;;;;3.00;2.65;;;18.70;60.40;;;;;;5074734;28;20651;-68
2021/10/24 09:52:31;;;;;;;2.58;2.33;;;18.80;60.50;;;;;;5075024;28;20174;-70
2021/10/24 09:54:57;;;;;;;3.20;2.90;;;18.80;60.50;;;;;;5075629;28;20656;-70
2021/10/24 09:57:23;;;;;;;2.85;2.58;;;18.80;60.50;;;;;;5074863;28;20664;-68
2021/10/24 09:59:52;;;;;;;5.00;2.72;;;18.80;60.50;;;;;;5075100;28;20611;-68
2021/10/24 10:02:18;;;;;;;2.65;2.40;;;18.80;60.50;;;;;;5075422;28;20203;-68
2021/10/24 10:04:44;;;;;;;4.05;2.83;;;18.80;60.50;;;;;;5072983;28;20257;-70
2021/10/24 10:07:11;;;;;;;3.70;2.60;;;18.80;60.60;;;;;;5075220;28;20261;-70
2021/10/24 10:09:37;;;;;;;6.75;3.60;;;18.80;60.60;;;;;;5075027;28;20236;-68
2021/10/24 10:12:03;;;;;;;6.53;2.63;;;18.80;60.20;;;;;;5074386;28;20166;-66
2021/10/24 10:14:31;;;;;;;4.32;2.70;;;18.80;60.40;;;;;;5073490;28;20691;-63
2021/10/24 10:17:11;;;;;;;3.97;2.80;;;18.80;60.50;;;;;;5073805;28;20657;-64
2021/10/24 10:19:38;;;;;;;4.72;3.13;;;18.80;59.80;;;;;;5073906;28;20179;-68
2021/10/24 10:22:21;;;;;;;7.18;3.70;;;18.80;59.80;;;;;;5075265;28;20206;-67
2021/10/24 10:25:07;;;;;;;3.67;3.13;;;18.70;59.20;;;;;;5064634;28;20207;-67
2021/10/24 10:27:35;;;;;;;3.53;3.22;;;18.80;59.20;;;;;;5054565;28;20182;-69
2021/10/24 10:30:05;;;;;;;6.05;3.00;;;18.80;59.60;;;;;;5054728;28;20175;-69
2021/10/24 10:32:44;;;;;;;4.72;2.95;;;18.80;59.70;;;;;;5053940;28;20258;-70
2021/10/24 10:35:11;;;;;;;5.40;2.75;;;18.70;59.70;;;;;;5054969;28;20179;-69
2021/10/24 10:37:59;;;;;;;5.03;2.85;;;18.80;59.80;;;;;;5054321;28;20257;-69
2021/10/24 10:40:30;;;;;;;3.92;3.40;;;18.80;59.90;;;;;;5053990;28;20537;-69
2021/10/24 10:43:12;;;;;;;3.38;2.40;;;18.80;59.90;;;;;;5053210;28;20609;-69
2021/10/24 10:45:39;;;;;;;4.22;2.63;;;18.80;59.90;;;;;;5054426;28;20181;-62
2021/10/24 10:48:30;;;;;;;5.15;3.28;;;18.80;59.50;;;;;;5053853;28;20194;-68
2021/10/24 10:51:02;;;;;;;3.38;2.92;;;18.80;59.10;;;;;;5054299;28;20638;-69
2021/10/24 10:53:30;;;;;;;5.15;2.90;;;18.80;59.30;;;;;;5053827;28;20190;-69
2021/10/24 10:55:56;;;;;;;4.43;2.92;;;18.80;59.50;;;;;;5054324;28;20171;-69
2021/10/24 10:58:43;;;;;;;4.05;2.95;;;18.80;59.50;;;;;;5054226;28;20557;-71
2021/10/24 11:01:31;;;;;;;4.38;2.55;;;18.90;59.60;;;;;;5053515;28;20175;-70
2021/10/24 11:04:17;;;;;;;3.20;2.42;;;18.90;59.60;;;;;;5054076;28;20578;-69
2021/10/24 11:06:50;;;;;;;4.20;2.83;;;18.90;59.60;;;;;;5054406;28;20179;-70
2021/10/24 11:09:41;;;;;;;4.00;2.65;;;19.00;59.70;;;;;;5053473;28;20225;-71
2021/10/24 11:12:09;;;;;;;4.85;2.65;;;19.00;59.70;;;;;;5053815;28;20672;-67
2021/10/24 11:14:41;;;;;;;3.33;2.53;;;19.10;59.70;;;;;;5052848;28;20181;-67
2021/10/24 11:17:07;;;;;;;3.50;2.65;;;19.10;59.70;;;;;;5054036;28;20601;-67
2021/10/24 11:19:38;;;;;;;4.05;2.63;;;19.10;59.70;;;;;;5053575;28;20651;-65
2021/10/24 11:22:14;;;;;;;4.25;2.97;;;19.10;59.70;;;;;;5053226;28;20163;-65
2021/10/24 11:24:44;;;;;;;4.22;2.92;;;19.10;59.20;;;;;;5061885;28;20223;-65
2021/10/24 11:27:11;;;;;;;4.70;2.72;;;19.10;59.00;;;;;;5074174;28;20303;-68
2021/10/24 11:29:49;;;;;;;4.07;3.00;;;19.10;58.60;;;;;;5072835;28;20175;-73
2021/10/24 11:32:27;;;;;;;4.32;2.83;;;19.10;58.40;;;;;;5073583;28;20172;-73
2021/10/24 11:34:53;;;;;;;4.05;2.88;;;19.10;58.20;;;;;;5073329;28;20167;-70
2021/10/24 11:37:33;;;;;;;3.78;3.03;;;19.10;58.10;;;;;;5072822;28;20664;-71
2021/10/24 11:40:01;;;;;;;6.28;2.67;;;19.10;58.00;;;;;;5073454;28;20177;-72
2021/10/24 11:42:27;;;;;;;3.90;2.85;;;19.10;58.00;;;;;;5072443;28;20178;-70
2021/10/24 11:44:53;;;;;;;5.05;3.17;;;19.20;58.00;;;;;;5072781;28;20190;-71
2021/10/24 11:47:19;;;;;;;4.45;2.72;;;19.20;58.70;;;;;;5055487;28;20198;-71
2021/10/24 11:49:52;;;;;;;7.18;3.50;;;19.10;58.00;;;;;;5072424;28;20189;-63
2021/10/24 11:52:27;;;;;;;4.53;3.58;;;19.10;57.90;;;;;;5073015;28;20227;-63
2021/10/24 11:55:06;;;;;;;4.50;2.70;;;19.10;57.70;;;;;;5073136;28;20173;-71
2021/10/24 11:57:48;;;;;;;4.07;2.55;;;19.10;57.70;;;;;;5071956;28;20218;-71
2021/10/24 12:00:27;;;;;;;4.15;3.17;;;19.10;57.80;;;;;;5073361;28;20201;-72
2021/10/24 12:02:55;;;;;;;9.65;2.78;;;19.10;57.90;;;;;;5072986;28;20300;-73
2021/10/24 12:05:23;;;;;;;4.03;2.33;;;19.20;58.00;;;;;;5072484;28;20185;-73
2021/10/24 12:07:52;;;;;;;3.97;2.50;;;19.10;58.10;;;;;;5072554;28;20609;-71
2021/10/24 12:10:18;;;;;;;6.25;2.65;;;19.10;58.20;;;;;;5072178;28;20181;-71
2021/10/24 12:12:44;;;;;;;4.18;2.53;;;19.10;58.40;;;;;;5071648;28;20180;-70
2021/10/24 12:15:16;;;;;;;2.75;2.42;;;19.10;58.50;;;;;;5073037;28;20257;-71
2021/10/24 12:17:43;;;;;;;3.00;2.28;;;19.10;58.60;;;;;;5071881;28;20259;-71
2021/10/24 12:20:19;;;;;;;4.22;2.60;;;19.10;58.60;;;;;;5072819;28;20633;-70
2021/10/24 12:22:49;;;;;;;4.30;2.78;;;19.10;58.70;;;;;;5073181;28;20178;-71
2021/10/24 12:25:18;;;;;;;4.07;2.40;;;19.10;58.80;;;;;;5059053;28;20202;-70
2021/10/24 12:27:46;;;;;;;6.68;2.80;;;19.10;58.80;;;;;;5051565;28;20257;-72
2021/10/24 12:30:21;;;;;;;2.95;2.33;;;19.10;58.80;;;;;;5051473;28;20182;-73
2021/10/24 12:32:54;;;;;;;2.55;2.35;;;19.10;58.80;;;;;;5051527;28;20186;-72
2021/10/24 12:35:20;;;;;;;3.83;2.35;;;19.10;58.80;;;;;;5052854;28;20172;-64
2021/10/24 12:37:58;;;;;;;5.47;2.53;;;19.10;58.80;;;;;;5052439;28;20284;-64
2021/10/24 12:40:28;;;;;;;5.32;3.17;;;19.10;58.60;;;;;;5050811;28;20179;-66
2021/10/24 12:43:04;;;;;;;3.03;2.40;;;19.10;58.30;;;;;;5052452;28;20230;-71
2021/10/24 12:45:29;;;;;;;4.43;2.83;;;19.10;57.70;;;;;;5051703;28;20175;-65
2021/10/24 12:47:56;;;;;;;8.20;2.90;;;19.10;57.60;;;;;;5052795;28;20175;-64